sensor_id;sensor_type;location;lat;lon;timestamp;P1;durP1;ratioP1;P2;durP2;ratioP2
72319;SDS011;60269;52.502;16.732;2023-07-24T00:02:34;6.07;;;1.23;;
72319;SDS011;60269;52.502;16.732;2023-07-24T00:06:07;7.47;;;2.03;;
72319;SDS011;60269;52.502;16.732;2023-07-24T00:09:39;7.03;;;1.42;;
72319;SDS011;60269;52.502;16.732;2023-07-24T00:13:11;6.27;;;1.33;;
72319;SDS011;60269;52.502;16.732;2023-07-24T00:16:43;6.07;;;1.30;;
72319;SDS011;60269;52.502;16.732;2023-07-24T00:20:15;5.15;;;1.00;;
72319;SDS011;60269;52.502;16.732;2023-07-24T00:23:47;7.63;;;1.42;;
72319;SDS011;60269;52.502;16.732;2023-07-24T00:27:20;4.50;;;0.95;;
72319;SDS011;60269;52.502;16.732;2023-07-24T00:30:52;5.37;;;1.30;;
72319;SDS011;60269;52.502;16.732;2023-07-24T00:34:24;6.40;;;1.05;;
72319;SDS011;60269;52.502;16.732;2023-07-24T00:38:00;6.97;;;1.42;;
72319;SDS011;60269;52.502;16.732;2023-07-24T00:41:32;5.30;;;1.40;;
72319;SDS011;60269;52.502;16.732;2023-07-24T00:45:04;6.33;;;1.50;;
72319;SDS011;60269;52.502;16.732;2023-07-24T00:48:37;8.45;;;1.40;;
72319;SDS011;60269;52.502;16.732;2023-07-24T00:52:10;6.68;;;1.17;;
72319;SDS011;60269;52.502;16.732;2023-07-24T00:55:43;9.23;;;1.40;;
72319;SDS011;60269;52.502;16.732;2023-07-24T00:59:19;6.40;;;1.30;;
72319;SDS011;60269;52.502;16.732;2023-07-24T01:02:52;5.82;;;1.30;;
72319;SDS011;60269;52.502;16.732;2023-07-24T01:06:25;6.90;;;1.65;;
72319;SDS011;60269;52.502;16.732;2023-07-24T01:09:58;5.03;;;1.13;;
72319;SDS011;60269;52.502;16.732;2023-07-24T01:13:32;6.23;;;1.30;;
72319;SDS011;60269;52.502;16.732;2023-07-24T01:17:14;4.57;;;1.13;;
72319;SDS011;60269;52.502;16.732;2023-07-24T01:20:50;4.25;;;1.10;;
72319;SDS011;60269;52.502;16.732;2023-07-24T01:24:33;5.78;;;1.38;;
72319;SDS011;60269;52.502;16.732;2023-07-24T01:28:12;5.77;;;1.33;;
72319;SDS011;60269;52.502;16.732;2023-07-24T01:31:44;5.47;;;1.40;;
72319;SDS011;60269;52.502;16.732;2023-07-24T01:35:18;5.97;;;1.48;;
72319;SDS011;60269;52.502;16.732;2023-07-24T01:38:51;6.37;;;1.60;;
72319;SDS011;60269;52.502;16.732;2023-07-24T01:42:24;5.63;;;1.10;;
72319;SDS011;60269;52.502;16.732;2023-07-24T01:45:57;6.72;;;1.30;;
72319;SDS011;60269;52.502;16.732;2023-07-24T01:49:34;7.57;;;1.25;;
72319;SDS011;60269;52.502;16.732;2023-07-24T01:53:08;7.93;;;1.15;;
72319;SDS011;60269;52.502;16.732;2023-07-24T01:56:41;5.97;;;1.17;;
72319;SDS011;60269;52.502;16.732;2023-07-24T02:00:14;6.68;;;1.45;;
72319;SDS011;60269;52.502;16.732;2023-07-24T02:03:48;6.45;;;1.20;;
72319;SDS011;60269;52.502;16.732;2023-07-24T02:07:20;5.82;;;1.15;;
72319;SDS011;60269;52.502;16.732;2023-07-24T02:10:55;5.57;;;1.30;;
72319;SDS011;60269;52.502;16.732;2023-07-24T02:14:27;7.32;;;1.48;;
72319;SDS011;60269;52.502;16.732;2023-07-24T02:18:00;8.00;;;1.63;;
72319;SDS011;60269;52.502;16.732;2023-07-24T02:21:32;4.90;;;1.10;;
72319;SDS011;60269;52.502;16.732;2023-07-24T02:25:04;4.87;;;1.30;;
72319;SDS011;60269;52.502;16.732;2023-07-24T02:28:37;6.50;;;1.30;;
72319;SDS011;60269;52.502;16.732;2023-07-24T02:32:09;5.40;;;1.33;;
72319;SDS011;60269;52.502;16.732;2023-07-24T02:35:41;5.18;;;1.10;;
72319;SDS011;60269;52.502;16.732;2023-07-24T02:39:13;6.63;;;1.53;;
72319;SDS011;60269;52.502;16.732;2023-07-24T02:42:46;6.85;;;1.63;;
72319;SDS011;60269;52.502;16.732;2023-07-24T02:46:18;5.80;;;1.65;;
72319;SDS011;60269;52.502;16.732;2023-07-24T02:49:50;7.63;;;1.98;;
72319;SDS011;60269;52.502;16.732;2023-07-24T02:53:22;7.90;;;1.57;;
72319;SDS011;60269;52.502;16.732;2023-07-24T02:56:55;5.50;;;1.42;;
72319;SDS011;60269;52.502;16.732;2023-07-24T03:00:29;8.52;;;1.58;;
72319;SDS011;60269;52.502;16.732;2023-07-24T03:04:03;6.53;;;1.40;;
72319;SDS011;60269;52.502;16.732;2023-07-24T03:07:37;6.43;;;1.07;;
72319;SDS011;60269;52.502;16.732;2023-07-24T03:11:09;8.48;;;1.63;;
72319;SDS011;60269;52.502;16.732;2023-07-24T03:14:41;7.35;;;1.92;;
72319;SDS011;60269;52.502;16.732;2023-07-24T03:18:14;7.63;;;1.80;;
72319;SDS011;60269;52.502;16.732;2023-07-24T03:21:47;8.77;;;1.87;;
72319;SDS011;60269;52.502;16.732;2023-07-24T03:25:19;7.38;;;1.90;;
72319;SDS011;60269;52.502;16.732;2023-07-24T03:28:52;5.65;;;1.80;;
72319;SDS011;60269;52.502;16.732;2023-07-24T03:32:24;5.85;;;1.60;;
72319;SDS011;60269;52.502;16.732;2023-07-24T03:35:55;5.30;;;1.57;;
72319;SDS011;60269;52.502;16.732;2023-07-24T03:39:30;5.68;;;1.40;;
72319;SDS011;60269;52.502;16.732;2023-07-24T03:43:03;7.43;;;1.90;;
72319;SDS011;60269;52.502;16.732;2023-07-24T03:46:34;6.70;;;2.03;;
72319;SDS011;60269;52.502;16.732;2023-07-24T03:50:07;7.93;;;1.63;;
72319;SDS011;60269;52.502;16.732;2023-07-24T03:53:41;7.93;;;1.37;;
72319;SDS011;60269;52.502;16.732;2023-07-24T03:57:13;8.52;;;1.70;;
72319;SDS011;60269;52.502;16.732;2023-07-24T04:01:03;5.68;;;1.23;;
72319;SDS011;60269;52.502;16.732;2023-07-24T04:04:36;7.70;;;1.58;;
72319;SDS011;60269;52.502;16.732;2023-07-24T04:08:09;5.93;;;1.23;;
72319;SDS011;60269;52.502;16.732;2023-07-24T04:11:42;6.03;;;1.27;;
72319;SDS011;60269;52.502;16.732;2023-07-24T04:15:16;6.95;;;1.50;;
72319;SDS011;60269;52.502;16.732;2023-07-24T04:18:48;6.75;;;1.63;;
72319;SDS011;60269;52.502;16.732;2023-07-24T04:22:20;6.83;;;1.87;;
72319;SDS011;60269;52.502;16.732;2023-07-24T04:25:53;6.75;;;1.45;;
72319;SDS011;60269;52.502;16.732;2023-07-24T04:29:25;7.88;;;1.67;;
72319;SDS011;60269;52.502;16.732;2023-07-24T04:32:58;6.57;;;1.75;;
72319;SDS011;60269;52.502;16.732;2023-07-24T04:36:30;7.27;;;1.50;;
72319;SDS011;60269;52.502;16.732;2023-07-24T04:40:03;8.63;;;1.77;;
72319;SDS011;60269;52.502;16.732;2023-07-24T04:43:36;6.78;;;1.73;;
72319;SDS011;60269;52.502;16.732;2023-07-24T04:47:10;7.00;;;1.70;;
72319;SDS011;60269;52.502;16.732;2023-07-24T04:50:52;10.13;;;1.85;;
72319;SDS011;60269;52.502;16.732;2023-07-24T04:54:26;7.47;;;2.00;;
72319;SDS011;60269;52.502;16.732;2023-07-24T04:57:58;7.75;;;2.10;;
72319;SDS011;60269;52.502;16.732;2023-07-24T05:01:31;6.72;;;1.80;;
72319;SDS011;60269;52.502;16.732;2023-07-24T05:05:04;6.22;;;1.58;;
72319;SDS011;60269;52.502;16.732;2023-07-24T05:08:36;6.57;;;1.50;;
72319;SDS011;60269;52.502;16.732;2023-07-24T05:12:09;6.07;;;1.50;;
72319;SDS011;60269;52.502;16.732;2023-07-24T05:15:42;6.03;;;1.58;;
72319;SDS011;60269;52.502;16.732;2023-07-24T05:19:14;6.72;;;1.30;;
72319;SDS011;60269;52.502;16.732;2023-07-24T05:22:48;7.97;;;1.60;;
72319;SDS011;60269;52.502;16.732;2023-07-24T05:26:20;6.37;;;1.60;;
72319;SDS011;60269;52.502;16.732;2023-07-24T05:29:55;6.63;;;1.40;;
72319;SDS011;60269;52.502;16.732;2023-07-24T05:33:39;7.00;;;1.60;;
72319;SDS011;60269;52.502;16.732;2023-07-24T05:37:15;6.03;;;1.75;;
72319;SDS011;60269;52.502;16.732;2023-07-24T05:41:03;6.77;;;2.10;;
72319;SDS011;60269;52.502;16.732;2023-07-24T05:44:41;5.72;;;1.40;;
72319;SDS011;60269;52.502;16.732;2023-07-24T05:48:13;6.13;;;1.90;;
72319;SDS011;60269;52.502;16.732;2023-07-24T05:51:45;7.07;;;1.55;;
72319;SDS011;60269;52.502;16.732;2023-07-24T05:55:17;8.20;;;1.33;;
72319;SDS011;60269;52.502;16.732;2023-07-24T05:58:50;6.73;;;1.27;;
72319;SDS011;60269;52.502;16.732;2023-07-24T06:02:22;5.15;;;1.30;;
72319;SDS011;60269;52.502;16.732;2023-07-24T06:05:54;6.65;;;1.70;;
72319;SDS011;60269;52.502;16.732;2023-07-24T06:09:26;6.10;;;1.77;;
72319;SDS011;60269;52.502;16.732;2023-07-24T06:12:58;5.70;;;1.67;;
72319;SDS011;60269;52.502;16.732;2023-07-24T06:16:31;9.30;;;2.03;;
72319;SDS011;60269;52.502;16.732;2023-07-24T06:20:04;5.70;;;1.60;;
72319;SDS011;60269;52.502;16.732;2023-07-24T06:23:37;7.13;;;1.65;;
72319;SDS011;60269;52.502;16.732;2023-07-24T06:27:10;7.97;;;1.63;;
72319;SDS011;60269;52.502;16.732;2023-07-24T06:30:42;6.37;;;1.60;;
72319;SDS011;60269;52.502;16.732;2023-07-24T06:34:14;5.78;;;1.13;;
72319;SDS011;60269;52.502;16.732;2023-07-24T06:37:46;5.50;;;1.42;;
72319;SDS011;60269;52.502;16.732;2023-07-24T06:41:19;7.28;;;1.50;;
72319;SDS011;60269;52.502;16.732;2023-07-24T06:44:54;6.47;;;2.05;;
72319;SDS011;60269;52.502;16.732;2023-07-24T06:48:26;6.10;;;1.43;;
72319;SDS011;60269;52.502;16.732;2023-07-24T06:51:58;5.85;;;1.85;;
72319;SDS011;60269;52.502;16.732;2023-07-24T06:55:31;6.10;;;2.33;;
72319;SDS011;60269;52.502;16.732;2023-07-24T06:59:03;6.13;;;1.70;;
72319;SDS011;60269;52.502;16.732;2023-07-24T07:02:35;6.27;;;2.00;;
72319;SDS011;60269;52.502;16.732;2023-07-24T07:06:07;6.23;;;1.73;;
72319;SDS011;60269;52.502;16.732;2023-07-24T07:09:58;5.20;;;1.38;;
72319;SDS011;60269;52.502;16.732;2023-07-24T07:13:30;5.57;;;1.48;;
72319;SDS011;60269;52.502;16.732;2023-07-24T07:17:02;4.55;;;1.42;;
72319;SDS011;60269;52.502;16.732;2023-07-24T07:20:35;3.83;;;0.93;;
72319;SDS011;60269;52.502;16.732;2023-07-24T07:24:07;5.25;;;1.35;;
72319;SDS011;60269;52.502;16.732;2023-07-24T07:27:39;3.10;;;1.25;;
72319;SDS011;60269;52.502;16.732;2023-07-24T07:31:11;4.82;;;1.00;;
72319;SDS011;60269;52.502;16.732;2023-07-24T07:34:44;3.90;;;1.13;;
72319;SDS011;60269;52.502;16.732;2023-07-24T07:38:16;4.27;;;1.20;;
72319;SDS011;60269;52.502;16.732;2023-07-24T07:41:48;4.20;;;1.20;;
72319;SDS011;60269;52.502;16.732;2023-07-24T07:45:26;5.22;;;1.50;;
72319;SDS011;60269;52.502;16.732;2023-07-24T07:48:59;5.80;;;1.60;;
72319;SDS011;60269;52.502;16.732;2023-07-24T07:52:31;5.80;;;1.30;;
72319;SDS011;60269;52.502;16.732;2023-07-24T07:56:03;4.97;;;1.47;;
72319;SDS011;60269;52.502;16.732;2023-07-24T07:59:36;5.78;;;1.60;;
72319;SDS011;60269;52.502;16.732;2023-07-24T08:03:08;6.28;;;1.55;;
72319;SDS011;60269;52.502;16.732;2023-07-24T08:06:41;5.35;;;1.70;;
72319;SDS011;60269;52.502;16.732;2023-07-24T08:10:13;5.17;;;1.70;;
72319;SDS011;60269;52.502;16.732;2023-07-24T08:13:48;5.32;;;1.80;;
72319;SDS011;60269;52.502;16.732;2023-07-24T08:17:20;5.25;;;2.05;;
72319;SDS011;60269;52.502;16.732;2023-07-24T08:20:53;5.25;;;2.03;;
72319;SDS011;60269;52.502;16.732;2023-07-24T08:24:25;8.13;;;2.57;;
72319;SDS011;60269;52.502;16.732;2023-07-24T08:27:57;7.33;;;2.07;;
72319;SDS011;60269;52.502;16.732;2023-07-24T08:31:36;6.10;;;2.00;;
72319;SDS011;60269;52.502;16.732;2023-07-24T08:35:09;4.95;;;1.95;;
72319;SDS011;60269;52.502;16.732;2023-07-24T08:38:41;6.20;;;2.30;;
72319;SDS011;60269;52.502;16.732;2023-07-24T08:42:14;6.07;;;1.83;;
72319;SDS011;60269;52.502;16.732;2023-07-24T08:45:46;4.93;;;1.80;;
72319;SDS011;60269;52.502;16.732;2023-07-24T08:49:18;5.60;;;1.80;;
72319;SDS011;60269;52.502;16.732;2023-07-24T08:52:51;6.47;;;2.22;;
72319;SDS011;60269;52.502;16.732;2023-07-24T08:56:24;5.32;;;1.75;;
72319;SDS011;60269;52.502;16.732;2023-07-24T08:59:56;7.00;;;2.23;;
72319;SDS011;60269;52.502;16.732;2023-07-24T09:03:32;6.28;;;1.83;;
72319;SDS011;60269;52.502;16.732;2023-07-24T09:07:05;5.82;;;2.25;;
72319;SDS011;60269;52.502;16.732;2023-07-24T09:10:39;3.40;;;1.20;;
72319;SDS011;60269;52.502;16.732;2023-07-24T09:14:19;6.10;;;1.67;;
72319;SDS011;60269;52.502;16.732;2023-07-24T09:17:52;5.37;;;1.73;;
72319;SDS011;60269;52.502;16.732;2023-07-24T09:21:31;7.78;;;1.92;;
72319;SDS011;60269;52.502;16.732;2023-07-24T09:25:04;9.93;;;2.65;;
72319;SDS011;60269;52.502;16.732;2023-07-24T09:28:36;6.03;;;2.05;;
72319;SDS011;60269;52.502;16.732;2023-07-24T09:32:22;4.93;;;1.60;;
72319;SDS011;60269;52.502;16.732;2023-07-24T09:35:59;6.80;;;2.15;;
72319;SDS011;60269;52.502;16.732;2023-07-24T09:39:32;8.15;;;2.45;;
72319;SDS011;60269;52.502;16.732;2023-07-24T09:47:09;5.25;;;1.88;;
72319;SDS011;60269;52.502;16.732;2023-07-24T09:51:01;4.50;;;1.40;;
72319;SDS011;60269;52.502;16.732;2023-07-24T09:54:34;6.47;;;2.22;;
72319;SDS011;60269;52.502;16.732;2023-07-24T09:58:17;6.68;;;2.20;;
72319;SDS011;60269;52.502;16.732;2023-07-24T10:01:52;4.93;;;1.80;;
72319;SDS011;60269;52.502;16.732;2023-07-24T10:05:24;10.50;;;2.23;;
72319;SDS011;60269;52.502;16.732;2023-07-24T10:08:57;6.72;;;2.40;;
72319;SDS011;60269;52.502;16.732;2023-07-24T10:12:31;5.68;;;2.47;;
72319;SDS011;60269;52.502;16.732;2023-07-24T10:16:04;6.13;;;2.53;;
72319;SDS011;60269;52.502;16.732;2023-07-24T10:19:39;7.73;;;2.27;;
72319;SDS011;60269;52.502;16.732;2023-07-24T10:23:16;7.13;;;2.63;;
72319;SDS011;60269;52.502;16.732;2023-07-24T10:26:54;7.07;;;1.90;;
72319;SDS011;60269;52.502;16.732;2023-07-24T10:30:28;5.50;;;2.13;;
72319;SDS011;60269;52.502;16.732;2023-07-24T10:34:06;5.38;;;2.42;;
72319;SDS011;60269;52.502;16.732;2023-07-24T10:37:38;5.17;;;2.20;;
72319;SDS011;60269;52.502;16.732;2023-07-24T10:41:11;5.68;;;2.40;;
72319;SDS011;60269;52.502;16.732;2023-07-24T10:44:43;5.80;;;2.47;;
72319;SDS011;60269;52.502;16.732;2023-07-24T10:48:16;5.10;;;2.08;;
72319;SDS011;60269;52.502;16.732;2023-07-24T10:51:54;5.20;;;2.23;;
72319;SDS011;60269;52.502;16.732;2023-07-24T10:55:31;5.03;;;1.73;;
72319;SDS011;60269;52.502;16.732;2023-07-24T10:59:04;7.80;;;1.90;;
72319;SDS011;60269;52.502;16.732;2023-07-24T11:02:37;6.15;;;2.30;;
72319;SDS011;60269;52.502;16.732;2023-07-24T11:06:16;6.37;;;1.80;;
72319;SDS011;60269;52.502;16.732;2023-07-24T11:09:49;4.83;;;2.23;;
72319;SDS011;60269;52.502;16.732;2023-07-24T11:13:24;6.57;;;2.80;;
72319;SDS011;60269;52.502;16.732;2023-07-24T11:16:57;6.95;;;2.50;;
72319;SDS011;60269;52.502;16.732;2023-07-24T11:20:29;10.52;;;3.47;;
72319;SDS011;60269;52.502;16.732;2023-07-24T11:24:06;12.73;;;4.40;;
72319;SDS011;60269;52.502;16.732;2023-07-24T11:27:42;8.32;;;4.90;;
72319;SDS011;60269;52.502;16.732;2023-07-24T11:31:16;8.80;;;4.20;;
72319;SDS011;60269;52.502;16.732;2023-07-24T11:34:51;11.32;;;6.53;;
72319;SDS011;60269;52.502;16.732;2023-07-24T11:38:24;11.90;;;7.32;;
72319;SDS011;60269;52.502;16.732;2023-07-24T11:41:56;14.67;;;7.90;;
72319;SDS011;60269;52.502;16.732;2023-07-24T11:45:29;12.43;;;6.78;;
72319;SDS011;60269;52.502;16.732;2023-07-24T11:49:02;14.63;;;7.63;;
72319;SDS011;60269;52.502;16.732;2023-07-24T11:52:44;13.25;;;8.07;;
72319;SDS011;60269;52.502;16.732;2023-07-24T11:56:18;13.37;;;7.33;;
72319;SDS011;60269;52.502;16.732;2023-07-24T11:59:51;13.00;;;6.00;;
72319;SDS011;60269;52.502;16.732;2023-07-24T12:03:25;14.77;;;7.28;;
72319;SDS011;60269;52.502;16.732;2023-07-24T12:07:00;12.98;;;6.13;;
72319;SDS011;60269;52.502;16.732;2023-07-24T12:10:32;11.90;;;5.55;;
72319;SDS011;60269;52.502;16.732;2023-07-24T12:14:12;10.47;;;5.77;;
72319;SDS011;60269;52.502;16.732;2023-07-24T12:17:45;9.53;;;5.30;;
72319;SDS011;60269;52.502;16.732;2023-07-24T12:21:17;11.38;;;5.57;;
72319;SDS011;60269;52.502;16.732;2023-07-24T12:24:49;9.55;;;5.25;;
72319;SDS011;60269;52.502;16.732;2023-07-24T12:28:23;11.02;;;5.00;;
72319;SDS011;60269;52.502;16.732;2023-07-24T12:31:54;7.27;;;3.37;;
72319;SDS011;60269;52.502;16.732;2023-07-24T12:35:27;7.28;;;3.13;;
72319;SDS011;60269;52.502;16.732;2023-07-24T12:38:58;7.18;;;3.53;;
72319;SDS011;60269;52.502;16.732;2023-07-24T12:42:31;7.38;;;2.95;;
72319;SDS011;60269;52.502;16.732;2023-07-24T12:46:03;7.25;;;3.17;;
72319;SDS011;60269;52.502;16.732;2023-07-24T12:49:35;7.70;;;2.50;;
72319;SDS011;60269;52.502;16.732;2023-07-24T12:53:07;6.93;;;2.70;;
72319;SDS011;60269;52.502;16.732;2023-07-24T12:56:46;6.57;;;3.08;;
72319;SDS011;60269;52.502;16.732;2023-07-24T13:00:18;6.53;;;2.60;;
72319;SDS011;60269;52.502;16.732;2023-07-24T13:03:50;8.47;;;3.30;;
72319;SDS011;60269;52.502;16.732;2023-07-24T13:07:22;6.47;;;2.90;;
72319;SDS011;60269;52.502;16.732;2023-07-24T13:10:54;6.90;;;2.90;;
72319;SDS011;60269;52.502;16.732;2023-07-24T13:14:29;9.27;;;2.70;;
72319;SDS011;60269;52.502;16.732;2023-07-24T13:18:02;6.28;;;3.08;;
72319;SDS011;60269;52.502;16.732;2023-07-24T13:22:11;6.37;;;2.57;;
72319;SDS011;60269;52.502;16.732;2023-07-24T13:25:43;6.32;;;2.90;;
72319;SDS011;60269;52.502;16.732;2023-07-24T13:29:15;8.98;;;2.92;;
72319;SDS011;60269;52.502;16.732;2023-07-24T13:32:47;6.47;;;2.42;;
72319;SDS011;60269;52.502;16.732;2023-07-24T13:36:19;8.27;;;3.13;;
72319;SDS011;60269;52.502;16.732;2023-07-24T13:39:52;8.53;;;2.87;;
72319;SDS011;60269;52.502;16.732;2023-07-24T13:43:24;6.88;;;2.70;;
72319;SDS011;60269;52.502;16.732;2023-07-24T13:46:56;6.40;;;3.00;;
72319;SDS011;60269;52.502;16.732;2023-07-24T13:50:28;6.07;;;2.85;;
72319;SDS011;60269;52.502;16.732;2023-07-24T13:54:01;6.57;;;2.73;;
72319;SDS011;60269;52.502;16.732;2023-07-24T13:57:34;6.50;;;2.97;;
72319;SDS011;60269;52.502;16.732;2023-07-24T14:01:06;7.38;;;2.70;;
72319;SDS011;60269;52.502;16.732;2023-07-24T14:04:39;8.32;;;2.80;;
72319;SDS011;60269;52.502;16.732;2023-07-24T14:08:11;7.82;;;3.20;;
72319;SDS011;60269;52.502;16.732;2023-07-24T14:11:44;7.97;;;3.13;;
72319;SDS011;60269;52.502;16.732;2023-07-24T14:15:15;7.63;;;3.37;;
72319;SDS011;60269;52.502;16.732;2023-07-24T14:18:48;10.80;;;3.03;;
72319;SDS011;60269;52.502;16.732;2023-07-24T14:22:21;7.53;;;3.47;;
72319;SDS011;60269;52.502;16.732;2023-07-24T14:25:54;7.53;;;2.83;;
72319;SDS011;60269;52.502;16.732;2023-07-24T14:29:26;9.70;;;3.27;;
72319;SDS011;60269;52.502;16.732;2023-07-24T14:33:00;9.23;;;3.67;;
72319;SDS011;60269;52.502;16.732;2023-07-24T14:36:50;7.85;;;3.72;;
72319;SDS011;60269;52.502;16.732;2023-07-24T14:40:24;10.25;;;3.83;;
72319;SDS011;60269;52.502;16.732;2023-07-24T14:43:56;10.15;;;3.80;;
72319;SDS011;60269;52.502;16.732;2023-07-24T14:47:29;7.43;;;3.33;;
72319;SDS011;60269;52.502;16.732;2023-07-24T14:51:01;9.30;;;3.88;;
72319;SDS011;60269;52.502;16.732;2023-07-24T14:54:33;8.27;;;3.22;;
72319;SDS011;60269;52.502;16.732;2023-07-24T14:58:09;8.45;;;3.63;;
72319;SDS011;60269;52.502;16.732;2023-07-24T15:01:41;8.23;;;3.25;;
72319;SDS011;60269;52.502;16.732;2023-07-24T15:05:14;7.83;;;3.23;;
72319;SDS011;60269;52.502;16.732;2023-07-24T15:08:46;8.93;;;3.50;;
72319;SDS011;60269;52.502;16.732;2023-07-24T15:12:18;8.30;;;3.78;;
72319;SDS011;60269;52.502;16.732;2023-07-24T15:15:50;8.00;;;3.15;;
72319;SDS011;60269;52.502;16.732;2023-07-24T15:19:22;8.82;;;3.30;;
72319;SDS011;60269;52.502;16.732;2023-07-24T15:22:55;8.67;;;3.50;;
72319;SDS011;60269;52.502;16.732;2023-07-24T15:26:27;10.43;;;3.22;;
72319;SDS011;60269;52.502;16.732;2023-07-24T15:29:59;8.32;;;3.42;;
72319;SDS011;60269;52.502;16.732;2023-07-24T15:33:31;8.50;;;3.30;;
72319;SDS011;60269;52.502;16.732;2023-07-24T15:37:04;8.57;;;3.83;;
72319;SDS011;60269;52.502;16.732;2023-07-24T15:40:37;10.30;;;3.30;;
72319;SDS011;60269;52.502;16.732;2023-07-24T15:44:11;9.23;;;3.42;;
72319;SDS011;60269;52.502;16.732;2023-07-24T15:47:43;7.70;;;3.80;;
72319;SDS011;60269;52.502;16.732;2023-07-24T15:51:15;10.30;;;3.95;;
72319;SDS011;60269;52.502;16.732;2023-07-24T15:54:47;9.67;;;3.63;;
72319;SDS011;60269;52.502;16.732;2023-07-24T15:58:20;8.43;;;3.67;;
72319;SDS011;60269;52.502;16.732;2023-07-24T16:01:52;10.75;;;4.25;;
72319;SDS011;60269;52.502;16.732;2023-07-24T16:05:25;11.80;;;4.18;;
72319;SDS011;60269;52.502;16.732;2023-07-24T16:08:57;9.25;;;4.15;;
72319;SDS011;60269;52.502;16.732;2023-07-24T16:12:31;10.60;;;3.93;;
72319;SDS011;60269;52.502;16.732;2023-07-24T16:16:03;10.37;;;4.13;;
72319;SDS011;60269;52.502;16.732;2023-07-24T16:19:35;9.32;;;3.63;;
72319;SDS011;60269;52.502;16.732;2023-07-24T16:23:08;9.48;;;4.28;;
72319;SDS011;60269;52.502;16.732;2023-07-24T16:26:40;15.02;;;4.20;;
72319;SDS011;60269;52.502;16.732;2023-07-24T16:30:13;10.27;;;3.73;;
72319;SDS011;60269;52.502;16.732;2023-07-24T16:33:46;10.82;;;3.40;;
72319;SDS011;60269;52.502;16.732;2023-07-24T16:37:20;9.82;;;4.38;;
72319;SDS011;60269;52.502;16.732;2023-07-24T16:40:52;9.02;;;3.70;;
72319;SDS011;60269;52.502;16.732;2023-07-24T16:44:24;11.53;;;4.70;;
72319;SDS011;60269;52.502;16.732;2023-07-24T16:48:04;8.53;;;3.97;;
72319;SDS011;60269;52.502;16.732;2023-07-24T16:51:37;8.90;;;3.70;;
72319;SDS011;60269;52.502;16.732;2023-07-24T16:55:09;9.35;;;4.00;;
72319;SDS011;60269;52.502;16.732;2023-07-24T16:58:41;10.45;;;4.57;;
72319;SDS011;60269;52.502;16.732;2023-07-24T17:02:13;10.07;;;3.93;;
72319;SDS011;60269;52.502;16.732;2023-07-24T17:05:45;12.67;;;4.33;;
72319;SDS011;60269;52.502;16.732;2023-07-24T17:09:18;11.85;;;4.10;;
72319;SDS011;60269;52.502;16.732;2023-07-24T17:12:50;10.43;;;4.47;;
72319;SDS011;60269;52.502;16.732;2023-07-24T17:16:22;10.90;;;3.90;;
72319;SDS011;60269;52.502;16.732;2023-07-24T17:19:55;10.60;;;4.23;;
72319;SDS011;60269;52.502;16.732;2023-07-24T17:23:45;8.60;;;3.67;;
72319;SDS011;60269;52.502;16.732;2023-07-24T17:27:18;9.68;;;3.92;;
72319;SDS011;60269;52.502;16.732;2023-07-24T17:30:50;11.65;;;4.38;;
72319;SDS011;60269;52.502;16.732;2023-07-24T17:34:23;10.77;;;4.30;;
72319;SDS011;60269;52.502;16.732;2023-07-24T17:37:55;13.57;;;4.40;;
72319;SDS011;60269;52.502;16.732;2023-07-24T17:41:27;12.00;;;4.53;;
72319;SDS011;60269;52.502;16.732;2023-07-24T17:45:01;8.90;;;3.97;;
72319;SDS011;60269;52.502;16.732;2023-07-24T17:48:34;9.27;;;4.15;;
72319;SDS011;60269;52.502;16.732;2023-07-24T17:52:07;10.53;;;3.77;;
72319;SDS011;60269;52.502;16.732;2023-07-24T17:55:40;9.68;;;4.32;;
72319;SDS011;60269;52.502;16.732;2023-07-24T17:59:12;10.60;;;4.30;;
72319;SDS011;60269;52.502;16.732;2023-07-24T18:02:44;14.18;;;4.10;;
72319;SDS011;60269;52.502;16.732;2023-07-24T18:06:16;12.33;;;4.57;;
72319;SDS011;60269;52.502;16.732;2023-07-24T18:09:48;10.57;;;3.90;;
72319;SDS011;60269;52.502;16.732;2023-07-24T18:13:21;11.98;;;3.53;;
72319;SDS011;60269;52.502;16.732;2023-07-24T18:16:54;10.68;;;4.13;;
72319;SDS011;60269;52.502;16.732;2023-07-24T18:20:26;11.05;;;3.38;;
72319;SDS011;60269;52.502;16.732;2023-07-24T18:23:59;13.07;;;4.10;;
72319;SDS011;60269;52.502;16.732;2023-07-24T18:27:36;11.77;;;3.80;;
72319;SDS011;60269;52.502;16.732;2023-07-24T18:31:10;12.57;;;3.95;;
72319;SDS011;60269;52.502;16.732;2023-07-24T18:34:42;14.02;;;3.75;;
72319;SDS011;60269;52.502;16.732;2023-07-24T18:38:14;10.15;;;3.25;;
72319;SDS011;60269;52.502;16.732;2023-07-24T18:41:46;11.07;;;3.30;;
72319;SDS011;60269;52.502;16.732;2023-07-24T18:45:18;9.93;;;3.13;;
72319;SDS011;60269;52.502;16.732;2023-07-24T18:48:50;10.50;;;3.88;;
72319;SDS011;60269;52.502;16.732;2023-07-24T18:52:23;10.02;;;2.70;;
72319;SDS011;60269;52.502;16.732;2023-07-24T18:55:55;7.43;;;2.60;;
72319;SDS011;60269;52.502;16.732;2023-07-24T18:59:29;9.30;;;3.07;;
72319;SDS011;60269;52.502;16.732;2023-07-24T19:03:02;8.20;;;2.47;;
72319;SDS011;60269;52.502;16.732;2023-07-24T19:06:34;9.15;;;2.45;;
72319;SDS011;60269;52.502;16.732;2023-07-24T19:10:10;9.90;;;3.00;;
72319;SDS011;60269;52.502;16.732;2023-07-24T19:13:44;9.55;;;3.28;;
72319;SDS011;60269;52.502;16.732;2023-07-24T19:17:16;8.43;;;2.60;;
72319;SDS011;60269;52.502;16.732;2023-07-24T19:20:48;11.88;;;2.83;;
72319;SDS011;60269;52.502;16.732;2023-07-24T19:24:20;9.73;;;3.35;;
72319;SDS011;60269;52.502;16.732;2023-07-24T19:27:52;10.60;;;3.05;;
72319;SDS011;60269;52.502;16.732;2023-07-24T19:31:24;8.40;;;2.50;;
72319;SDS011;60269;52.502;16.732;2023-07-24T19:34:56;11.07;;;2.93;;
72319;SDS011;60269;52.502;16.732;2023-07-24T19:38:28;9.55;;;2.47;;
72319;SDS011;60269;52.502;16.732;2023-07-24T19:42:00;9.32;;;2.80;;
72319;SDS011;60269;52.502;16.732;2023-07-24T19:45:41;12.02;;;3.20;;
72319;SDS011;60269;52.502;16.732;2023-07-24T19:49:13;9.53;;;2.83;;
72319;SDS011;60269;52.502;16.732;2023-07-24T19:52:45;10.30;;;2.90;;
72319;SDS011;60269;52.502;16.732;2023-07-24T19:56:20;10.00;;;2.70;;
72319;SDS011;60269;52.502;16.732;2023-07-24T19:59:52;12.25;;;3.58;;
72319;SDS011;60269;52.502;16.732;2023-07-24T20:03:24;9.45;;;2.65;;
72319;SDS011;60269;52.502;16.732;2023-07-24T20:06:56;9.60;;;2.80;;
72319;SDS011;60269;52.502;16.732;2023-07-24T20:10:28;8.67;;;2.93;;
72319;SDS011;60269;52.502;16.732;2023-07-24T20:14:00;7.80;;;2.40;;
72319;SDS011;60269;52.502;16.732;2023-07-24T20:17:32;8.88;;;2.13;;
72319;SDS011;60269;52.502;16.732;2023-07-24T20:21:04;9.88;;;2.53;;
72319;SDS011;60269;52.502;16.732;2023-07-24T20:24:37;8.50;;;2.50;;
72319;SDS011;60269;52.502;16.732;2023-07-24T20:28:09;7.28;;;2.40;;
72319;SDS011;60269;52.502;16.732;2023-07-24T20:31:41;12.50;;;3.08;;
72319;SDS011;60269;52.502;16.732;2023-07-24T20:35:13;8.98;;;2.85;;
72319;SDS011;60269;52.502;16.732;2023-07-24T20:38:45;9.37;;;2.43;;
72319;SDS011;60269;52.502;16.732;2023-07-24T20:42:17;9.30;;;2.60;;
72319;SDS011;60269;52.502;16.732;2023-07-24T20:45:49;12.00;;;2.58;;
72319;SDS011;60269;52.502;16.732;2023-07-24T20:49:24;7.50;;;2.97;;
72319;SDS011;60269;52.502;16.732;2023-07-24T20:53:00;9.93;;;2.90;;
72319;SDS011;60269;52.502;16.732;2023-07-24T20:56:31;8.20;;;2.03;;
72319;SDS011;60269;52.502;16.732;2023-07-24T21:00:05;8.82;;;2.28;;
72319;SDS011;60269;52.502;16.732;2023-07-24T21:03:39;10.38;;;2.45;;
72319;SDS011;60269;52.502;16.732;2023-07-24T21:07:12;14.38;;;1.95;;